sensor_id;sensor_type;location;lat;lon;timestamp;P1;durP1;ratioP1;P2;durP2;ratioP2
74259;SDS011;62630;55.874;37.516;2023-02-20T00:01:22;18.05;;;9.82;;
74259;SDS011;62630;55.874;37.516;2023-02-20T00:03:49;19.23;;;10.75;;
74259;SDS011;62630;55.874;37.516;2023-02-20T00:06:15;17.48;;;9.63;;
74259;SDS011;62630;55.874;37.516;2023-02-20T00:08:40;18.52;;;10.25;;
74259;SDS011;62630;55.874;37.516;2023-02-20T00:11:06;21.40;;;10.40;;
74259;SDS011;62630;55.874;37.516;2023-02-20T00:13:32;19.20;;;10.13;;
74259;SDS011;62630;55.874;37.516;2023-02-20T00:15:57;19.70;;;9.68;;
74259;SDS011;62630;55.874;37.516;2023-02-20T00:18:23;18.20;;;9.80;;
74259;SDS011;62630;55.874;37.516;2023-02-20T00:20:48;19.73;;;9.65;;
74259;SDS011;62630;55.874;37.516;2023-02-20T00:23:14;22.73;;;10.65;;
74259;SDS011;62630;55.874;37.516;2023-02-20T00:25:39;20.58;;;10.63;;
74259;SDS011;62630;55.874;37.516;2023-02-20T00:28:05;17.73;;;9.48;;
74259;SDS011;62630;55.874;37.516;2023-02-20T00:30:33;17.83;;;9.27;;
74259;SDS011;62630;55.874;37.516;2023-02-20T00:32:59;18.08;;;9.27;;
74259;SDS011;62630;55.874;37.516;2023-02-20T00:35:25;19.95;;;9.13;;
74259;SDS011;62630;55.874;37.516;2023-02-20T00:37:51;19.48;;;9.68;;
74259;SDS011;62630;55.874;37.516;2023-02-20T00:40:18;19.40;;;9.00;;
74259;SDS011;62630;55.874;37.516;2023-02-20T00:42:45;16.80;;;9.95;;
74259;SDS011;62630;55.874;37.516;2023-02-20T00:45:11;15.98;;;8.57;;
74259;SDS011;62630;55.874;37.516;2023-02-20T00:47:38;16.67;;;8.93;;
74259;SDS011;62630;55.874;37.516;2023-02-20T00:50:04;17.27;;;9.82;;
74259;SDS011;62630;55.874;37.516;2023-02-20T00:52:30;18.63;;;9.45;;
74259;SDS011;62630;55.874;37.516;2023-02-20T00:54:56;16.40;;;9.75;;
74259;SDS011;62630;55.874;37.516;2023-02-20T00:57:21;21.08;;;10.05;;
74259;SDS011;62630;55.874;37.516;2023-02-20T00:59:47;16.85;;;8.85;;
74259;SDS011;62630;55.874;37.516;2023-02-20T01:02:13;19.05;;;10.02;;
74259;SDS011;62630;55.874;37.516;2023-02-20T01:04:38;17.88;;;10.02;;
74259;SDS011;62630;55.874;37.516;2023-02-20T01:07:04;19.70;;;9.65;;
74259;SDS011;62630;55.874;37.516;2023-02-20T01:09:29;17.67;;;8.85;;
74259;SDS011;62630;55.874;37.516;2023-02-20T01:11:55;15.50;;;8.70;;
74259;SDS011;62630;55.874;37.516;2023-02-20T01:14:21;18.63;;;9.77;;
74259;SDS011;62630;55.874;37.516;2023-02-20T01:16:48;16.45;;;8.90;;
74259;SDS011;62630;55.874;37.516;2023-02-20T01:19:16;16.60;;;9.07;;
74259;SDS011;62630;55.874;37.516;2023-02-20T01:21:42;19.23;;;10.07;;
74259;SDS011;62630;55.874;37.516;2023-02-20T01:24:08;17.08;;;8.43;;
74259;SDS011;62630;55.874;37.516;2023-02-20T01:26:36;17.17;;;8.85;;
74259;SDS011;62630;55.874;37.516;2023-02-20T01:29:02;16.55;;;9.18;;
74259;SDS011;62630;55.874;37.516;2023-02-20T01:31:29;18.35;;;8.98;;
74259;SDS011;62630;55.874;37.516;2023-02-20T01:33:57;15.25;;;9.38;;
74259;SDS011;62630;55.874;37.516;2023-02-20T01:38:48;17.55;;;8.57;;
74259;SDS011;62630;55.874;37.516;2023-02-20T01:41:15;16.55;;;10.00;;
74259;SDS011;62630;55.874;37.516;2023-02-20T01:43:41;18.35;;;9.20;;
74259;SDS011;62630;55.874;37.516;2023-02-20T01:49:09;13.73;;;8.18;;
74259;SDS011;62630;55.874;37.516;2023-02-20T01:51:40;18.58;;;9.45;;
74259;SDS011;62630;55.874;37.516;2023-02-20T01:54:14;16.08;;;8.90;;
74259;SDS011;62630;55.874;37.516;2023-02-20T01:56:42;16.45;;;8.77;;
74259;SDS011;62630;55.874;37.516;2023-02-20T01:59:09;15.75;;;8.38;;
74259;SDS011;62630;55.874;37.516;2023-02-20T02:01:36;16.40;;;8.80;;
74259;SDS011;62630;55.874;37.516;2023-02-20T02:04:03;15.60;;;8.75;;
74259;SDS011;62630;55.874;37.516;2023-02-20T02:06:32;17.23;;;8.93;;
74259;SDS011;62630;55.874;37.516;2023-02-20T02:09:04;16.90;;;7.88;;
74259;SDS011;62630;55.874;37.516;2023-02-20T02:11:36;16.38;;;8.85;;
74259;SDS011;62630;55.874;37.516;2023-02-20T02:14:03;14.45;;;8.40;;
74259;SDS011;62630;55.874;37.516;2023-02-20T02:19:03;16.40;;;9.10;;
74259;SDS011;62630;55.874;37.516;2023-02-20T02:28:01;15.07;;;7.70;;
74259;SDS011;62630;55.874;37.516;2023-02-20T02:38:41;15.40;;;7.80;;
74259;SDS011;62630;55.874;37.516;2023-02-20T02:46:26;13.40;;;8.00;;
74259;SDS011;62630;55.874;37.516;2023-02-20T02:49:05;18.85;;;8.30;;
74259;SDS011;62630;55.874;37.516;2023-02-20T02:51:37;20.95;;;8.10;;
74259;SDS011;62630;55.874;37.516;2023-02-20T02:54:27;17.65;;;8.65;;
74259;SDS011;62630;55.874;37.516;2023-02-20T02:57:17;17.70;;;7.88;;
74259;SDS011;62630;55.874;37.516;2023-02-20T02:59:46;13.18;;;6.95;;
74259;SDS011;62630;55.874;37.516;2023-02-20T03:02:15;16.60;;;9.32;;
74259;SDS011;62630;55.874;37.516;2023-02-20T03:04:44;13.23;;;7.53;;
74259;SDS011;62630;55.874;37.516;2023-02-20T03:07:13;16.30;;;8.65;;
74259;SDS011;62630;55.874;37.516;2023-02-20T03:09:51;13.65;;;7.43;;
74259;SDS011;62630;55.874;37.516;2023-02-20T03:12:18;14.25;;;7.72;;
74259;SDS011;62630;55.874;37.516;2023-02-20T03:14:59;13.35;;;7.97;;
74259;SDS011;62630;55.874;37.516;2023-02-20T03:17:57;13.95;;;7.38;;
74259;SDS011;62630;55.874;37.516;2023-02-20T03:20:24;15.40;;;7.47;;
74259;SDS011;62630;55.874;37.516;2023-02-20T03:22:52;13.60;;;7.28;;
74259;SDS011;62630;55.874;37.516;2023-02-20T03:25:23;13.77;;;6.97;;
74259;SDS011;62630;55.874;37.516;2023-02-20T03:30:34;12.75;;;7.35;;
74259;SDS011;62630;55.874;37.516;2023-02-20T03:33:07;14.00;;;7.40;;
74259;SDS011;62630;55.874;37.516;2023-02-20T03:35:55;13.48;;;7.25;;
74259;SDS011;62630;55.874;37.516;2023-02-20T03:38:43;13.00;;;7.28;;
74259;SDS011;62630;55.874;37.516;2023-02-20T03:41:33;10.80;;;6.93;;
74259;SDS011;62630;55.874;37.516;2023-02-20T03:44:19;12.13;;;7.28;;
74259;SDS011;62630;55.874;37.516;2023-02-20T03:46:46;12.85;;;7.57;;
74259;SDS011;62630;55.874;37.516;2023-02-20T03:49:15;15.60;;;8.13;;
74259;SDS011;62630;55.874;37.516;2023-02-20T03:51:45;13.95;;;8.05;;
74259;SDS011;62630;55.874;37.516;2023-02-20T03:54:24;15.35;;;7.25;;
74259;SDS011;62630;55.874;37.516;2023-02-20T03:56:53;15.00;;;7.50;;
74259;SDS011;62630;55.874;37.516;2023-02-20T04:00:09;14.45;;;7.85;;
74259;SDS011;62630;55.874;37.516;2023-02-20T04:02:19;14.10;;;7.50;;
74259;SDS011;62630;55.874;37.516;2023-02-20T04:04:59;15.73;;;8.90;;
74259;SDS011;62630;55.874;37.516;2023-02-20T04:07:41;17.92;;;9.15;;
74259;SDS011;62630;55.874;37.516;2023-02-20T04:10:17;17.10;;;8.90;;
74259;SDS011;62630;55.874;37.516;2023-02-20T04:12:47;20.20;;;9.40;;
74259;SDS011;62630;55.874;37.516;2023-02-20T04:15:15;16.35;;;8.55;;
74259;SDS011;62630;55.874;37.516;2023-02-20T04:20:42;17.20;;;9.05;;
74259;SDS011;62630;55.874;37.516;2023-02-20T04:23:12;14.32;;;7.60;;
74259;SDS011;62630;55.874;37.516;2023-02-20T04:25:50;14.13;;;7.65;;
74259;SDS011;62630;55.874;37.516;2023-02-20T04:28:23;12.48;;;6.82;;
74259;SDS011;62630;55.874;37.516;2023-02-20T04:30:50;14.43;;;7.70;;
74259;SDS011;62630;55.874;37.516;2023-02-20T04:33:16;13.07;;;7.07;;
74259;SDS011;62630;55.874;37.516;2023-02-20T04:35:42;15.48;;;7.70;;
74259;SDS011;62630;55.874;37.516;2023-02-20T04:38:08;13.20;;;7.43;;
74259;SDS011;62630;55.874;37.516;2023-02-20T04:40:34;15.63;;;8.23;;
74259;SDS011;62630;55.874;37.516;2023-02-20T04:43:00;14.07;;;8.50;;
74259;SDS011;62630;55.874;37.516;2023-02-20T04:45:26;12.60;;;7.78;;
74259;SDS011;62630;55.874;37.516;2023-02-20T04:47:52;15.65;;;7.95;;
74259;SDS011;62630;55.874;37.516;2023-02-20T04:50:19;15.13;;;8.38;;
74259;SDS011;62630;55.874;37.516;2023-02-20T04:52:47;16.10;;;8.05;;
74259;SDS011;62630;55.874;37.516;2023-02-20T04:55:13;13.82;;;7.07;;
74259;SDS011;62630;55.874;37.516;2023-02-20T04:57:39;13.90;;;7.30;;
74259;SDS011;62630;55.874;37.516;2023-02-20T05:00:05;14.00;;;7.32;;
74259;SDS011;62630;55.874;37.516;2023-02-20T05:02:36;15.48;;;7.63;;
74259;SDS011;62630;55.874;37.516;2023-02-20T05:07:28;13.77;;;7.35;;
74259;SDS011;62630;55.874;37.516;2023-02-20T05:09:53;15.02;;;7.32;;
74259;SDS011;62630;55.874;37.516;2023-02-20T05:12:19;15.25;;;7.63;;
74259;SDS011;62630;55.874;37.516;2023-02-20T05:14:44;13.35;;;7.00;;
74259;SDS011;62630;55.874;37.516;2023-02-20T05:17:11;13.05;;;7.60;;
74259;SDS011;62630;55.874;37.516;2023-02-20T05:19:36;13.98;;;7.18;;
74259;SDS011;62630;55.874;37.516;2023-02-20T05:22:02;12.23;;;7.10;;
74259;SDS011;62630;55.874;37.516;2023-02-20T05:24:43;16.08;;;8.18;;
74259;SDS011;62630;55.874;37.516;2023-02-20T05:27:09;13.85;;;6.65;;
74259;SDS011;62630;55.874;37.516;2023-02-20T05:29:36;12.50;;;6.88;;
74259;SDS011;62630;55.874;37.516;2023-02-20T05:32:01;14.40;;;7.45;;
74259;SDS011;62630;55.874;37.516;2023-02-20T05:34:27;12.43;;;7.03;;
74259;SDS011;62630;55.874;37.516;2023-02-20T05:36:53;13.40;;;7.57;;
74259;SDS011;62630;55.874;37.516;2023-02-20T05:39:19;12.65;;;6.65;;
74259;SDS011;62630;55.874;37.516;2023-02-20T05:41:44;11.98;;;6.38;;
74259;SDS011;62630;55.874;37.516;2023-02-20T05:44:10;12.98;;;7.40;;
74259;SDS011;62630;55.874;37.516;2023-02-20T05:46:39;13.40;;;6.72;;
74259;SDS011;62630;55.874;37.516;2023-02-20T05:49:06;11.85;;;6.80;;
74259;SDS011;62630;55.874;37.516;2023-02-20T05:51:32;10.93;;;6.28;;
74259;SDS011;62630;55.874;37.516;2023-02-20T05:53:57;13.32;;;6.50;;
74259;SDS011;62630;55.874;37.516;2023-02-20T05:56:23;12.90;;;7.60;;
74259;SDS011;62630;55.874;37.516;2023-02-20T05:58:48;14.27;;;6.88;;
74259;SDS011;62630;55.874;37.516;2023-02-20T06:01:19;14.48;;;6.95;;
74259;SDS011;62630;55.874;37.516;2023-02-20T06:03:49;11.32;;;6.95;;
74259;SDS011;62630;55.874;37.516;2023-02-20T06:06:15;13.07;;;7.65;;
74259;SDS011;62630;55.874;37.516;2023-02-20T06:08:41;14.90;;;8.60;;
74259;SDS011;62630;55.874;37.516;2023-02-20T06:11:09;11.85;;;6.88;;
74259;SDS011;62630;55.874;37.516;2023-02-20T06:13:42;13.10;;;7.15;;
74259;SDS011;62630;55.874;37.516;2023-02-20T06:16:08;14.95;;;7.80;;
74259;SDS011;62630;55.874;37.516;2023-02-20T06:18:41;11.63;;;6.72;;
74259;SDS011;62630;55.874;37.516;2023-02-20T06:21:09;13.82;;;6.43;;
74259;SDS011;62630;55.874;37.516;2023-02-20T06:23:35;12.43;;;6.80;;
74259;SDS011;62630;55.874;37.516;2023-02-20T06:26:02;11.95;;;7.00;;
74259;SDS011;62630;55.874;37.516;2023-02-20T06:28:29;11.80;;;6.40;;
74259;SDS011;62630;55.874;37.516;2023-02-20T06:30:55;12.02;;;6.47;;
74259;SDS011;62630;55.874;37.516;2023-02-20T06:33:20;12.95;;;7.15;;
74259;SDS011;62630;55.874;37.516;2023-02-20T06:35:46;12.40;;;7.30;;
74259;SDS011;62630;55.874;37.516;2023-02-20T06:38:11;15.55;;;8.35;;
74259;SDS011;62630;55.874;37.516;2023-02-20T06:40:37;15.13;;;7.75;;
74259;SDS011;62630;55.874;37.516;2023-02-20T06:43:03;13.80;;;7.68;;
74259;SDS011;62630;55.874;37.516;2023-02-20T06:45:32;13.77;;;8.25;;
74259;SDS011;62630;55.874;37.516;2023-02-20T06:47:58;13.98;;;8.00;;
74259;SDS011;62630;55.874;37.516;2023-02-20T06:50:23;14.95;;;8.13;;
74259;SDS011;62630;55.874;37.516;2023-02-20T06:52:51;14.02;;;7.05;;
74259;SDS011;62630;55.874;37.516;2023-02-20T06:55:17;14.18;;;7.63;;
74259;SDS011;62630;55.874;37.516;2023-02-20T06:57:42;14.30;;;8.23;;
74259;SDS011;62630;55.874;37.516;2023-02-20T07:00:10;13.95;;;7.68;;
74259;SDS011;62630;55.874;37.516;2023-02-20T07:02:36;15.80;;;7.93;;
74259;SDS011;62630;55.874;37.516;2023-02-20T07:05:03;14.18;;;7.30;;
74259;SDS011;62630;55.874;37.516;2023-02-20T07:07:29;13.20;;;6.70;;
74259;SDS011;62630;55.874;37.516;2023-02-20T07:09:55;13.10;;;7.55;;
74259;SDS011;62630;55.874;37.516;2023-02-20T07:12:21;15.80;;;8.38;;
74259;SDS011;62630;55.874;37.516;2023-02-20T07:14:49;14.13;;;7.80;;
74259;SDS011;62630;55.874;37.516;2023-02-20T07:17:15;12.55;;;7.72;;
74259;SDS011;62630;55.874;37.516;2023-02-20T07:19:41;15.68;;;8.32;;
74259;SDS011;62630;55.874;37.516;2023-02-20T07:22:06;14.18;;;7.43;;
74259;SDS011;62630;55.874;37.516;2023-02-20T07:24:32;14.77;;;7.72;;
74259;SDS011;62630;55.874;37.516;2023-02-20T07:29:26;12.95;;;7.22;;
74259;SDS011;62630;55.874;37.516;2023-02-20T07:31:51;15.90;;;7.05;;
74259;SDS011;62630;55.874;37.516;2023-02-20T07:34:17;14.60;;;8.05;;
74259;SDS011;62630;55.874;37.516;2023-02-20T07:36:42;15.77;;;8.57;;
74259;SDS011;62630;55.874;37.516;2023-02-20T07:39:09;16.95;;;9.05;;
74259;SDS011;62630;55.874;37.516;2023-02-20T07:41:45;19.42;;;9.25;;
74259;SDS011;62630;55.874;37.516;2023-02-20T07:44:14;16.92;;;8.23;;
74259;SDS011;62630;55.874;37.516;2023-02-20T07:46:40;16.92;;;8.23;;
74259;SDS011;62630;55.874;37.516;2023-02-20T07:49:06;18.10;;;8.65;;
74259;SDS011;62630;55.874;37.516;2023-02-20T07:51:31;15.93;;;7.85;;
74259;SDS011;62630;55.874;37.516;2023-02-20T07:53:57;15.25;;;8.07;;
74259;SDS011;62630;55.874;37.516;2023-02-20T07:56:23;17.00;;;8.48;;
74259;SDS011;62630;55.874;37.516;2023-02-20T07:58:49;14.40;;;7.70;;
74259;SDS011;62630;55.874;37.516;2023-02-20T08:01:15;15.23;;;8.77;;
74259;SDS011;62630;55.874;37.516;2023-02-20T08:03:41;13.77;;;8.00;;
74259;SDS011;62630;55.874;37.516;2023-02-20T08:06:09;19.40;;;8.77;;
74259;SDS011;62630;55.874;37.516;2023-02-20T08:08:35;19.38;;;8.95;;
74259;SDS011;62630;55.874;37.516;2023-02-20T08:11:00;16.45;;;8.15;;
74259;SDS011;62630;55.874;37.516;2023-02-20T08:13:29;18.13;;;9.00;;
74259;SDS011;62630;55.874;37.516;2023-02-20T08:15:54;18.85;;;8.93;;
74259;SDS011;62630;55.874;37.516;2023-02-20T08:18:20;19.70;;;9.13;;
74259;SDS011;62630;55.874;37.516;2023-02-20T08:20:45;15.27;;;8.98;;
74259;SDS011;62630;55.874;37.516;2023-02-20T08:23:21;20.40;;;9.93;;
74259;SDS011;62630;55.874;37.516;2023-02-20T08:25:48;15.45;;;8.80;;
74259;SDS011;62630;55.874;37.516;2023-02-20T08:28:13;15.18;;;7.85;;
74259;SDS011;62630;55.874;37.516;2023-02-20T08:30:39;16.40;;;8.98;;
74259;SDS011;62630;55.874;37.516;2023-02-20T08:33:05;19.00;;;9.50;;
74259;SDS011;62630;55.874;37.516;2023-02-20T08:35:33;17.40;;;7.53;;
74259;SDS011;62630;55.874;37.516;2023-02-20T08:38:02;16.70;;;8.38;;
74259;SDS011;62630;55.874;37.516;2023-02-20T08:40:32;15.82;;;8.10;;
74259;SDS011;62630;55.874;37.516;2023-02-20T08:43:00;15.20;;;8.23;;
74259;SDS011;62630;55.874;37.516;2023-02-20T08:45:26;15.52;;;8.63;;
74259;SDS011;62630;55.874;37.516;2023-02-20T08:47:55;15.57;;;8.27;;
74259;SDS011;62630;55.874;37.516;2023-02-20T08:50:25;16.48;;;8.82;;
74259;SDS011;62630;55.874;37.516;2023-02-20T08:52:51;20.42;;;8.85;;
74259;SDS011;62630;55.874;37.516;2023-02-20T08:55:16;15.40;;;7.38;;
74259;SDS011;62630;55.874;37.516;2023-02-20T08:57:42;13.32;;;6.55;;
74259;SDS011;62630;55.874;37.516;2023-02-20T09:00:08;17.38;;;8.05;;
74259;SDS011;62630;55.874;37.516;2023-02-20T09:02:38;16.42;;;8.80;;
74259;SDS011;62630;55.874;37.516;2023-02-20T09:05:04;13.98;;;7.72;;
74259;SDS011;62630;55.874;37.516;2023-02-20T09:07:29;17.17;;;7.15;;
74259;SDS011;62630;55.874;37.516;2023-02-20T09:09:55;14.65;;;8.18;;
74259;SDS011;62630;55.874;37.516;2023-02-20T09:12:20;16.15;;;8.32;;
74259;SDS011;62630;55.874;37.516;2023-02-20T09:14:46;14.48;;;7.22;;
74259;SDS011;62630;55.874;37.516;2023-02-20T09:17:12;16.70;;;8.13;;
74259;SDS011;62630;55.874;37.516;2023-02-20T09:19:38;17.45;;;8.18;;
74259;SDS011;62630;55.874;37.516;2023-02-20T09:22:04;17.33;;;8.40;;
74259;SDS011;62630;55.874;37.516;2023-02-20T09:24:29;19.67;;;9.32;;
74259;SDS011;62630;55.874;37.516;2023-02-20T09:27:01;14.85;;;9.15;;
74259;SDS011;62630;55.874;37.516;2023-02-20T09:29:28;17.75;;;9.18;;
74259;SDS011;62630;55.874;37.516;2023-02-20T09:31:53;19.23;;;9.00;;
74259;SDS011;62630;55.874;37.516;2023-02-20T09:34:19;15.88;;;7.95;;
74259;SDS011;62630;55.874;37.516;2023-02-20T09:36:45;18.25;;;9.65;;
74259;SDS011;62630;55.874;37.516;2023-02-20T09:39:11;12.55;;;7.20;;
74259;SDS011;62630;55.874;37.516;2023-02-20T09:46:37;18.27;;;8.88;;
74259;SDS011;62630;55.874;37.516;2023-02-20T09:49:18;16.80;;;8.13;;
74259;SDS011;62630;55.874;37.516;2023-02-20T09:51:56;16.00;;;8.32;;
74259;SDS011;62630;55.874;37.516;2023-02-20T09:54:29;14.18;;;7.63;;
74259;SDS011;62630;55.874;37.516;2023-02-20T09:57:04;13.93;;;6.70;;
74259;SDS011;62630;55.874;37.516;2023-02-20T10:02:16;15.27;;;6.65;;
74259;SDS011;62630;55.874;37.516;2023-02-20T10:04:48;15.30;;;8.05;;
74259;SDS011;62630;55.874;37.516;2023-02-20T10:07:22;15.05;;;7.55;;
74259;SDS011;62630;55.874;37.516;2023-02-20T10:09:53;14.88;;;7.38;;
74259;SDS011;62630;55.874;37.516;2023-02-20T10:12:28;14.32;;;7.95;;
74259;SDS011;62630;55.874;37.516;2023-02-20T10:18:12;10.88;;;6.13;;
74259;SDS011;62630;55.874;37.516;2023-02-20T10:23:37;18.70;;;7.95;;
74259;SDS011;62630;55.874;37.516;2023-02-20T10:26:13;14.65;;;7.88;;
74259;SDS011;62630;55.874;37.516;2023-02-20T10:29:13;16.77;;;8.40;;
74259;SDS011;62630;55.874;37.516;2023-02-20T10:31:51;15.95;;;6.30;;
74259;SDS011;62630;55.874;37.516;2023-02-20T10:34:40;13.13;;;6.65;;
74259;SDS011;62630;55.874;37.516;2023-02-20T10:37:17;13.40;;;6.80;;
74259;SDS011;62630;55.874;37.516;2023-02-20T10:39:48;12.85;;;6.78;;
74259;SDS011;62630;55.874;37.516;2023-02-20T10:42:22;14.98;;;6.68;;
74259;SDS011;62630;55.874;37.516;2023-02-20T10:44:59;11.93;;;6.85;;
74259;SDS011;62630;55.874;37.516;2023-02-20T10:50:44;13.52;;;6.78;;
74259;SDS011;62630;55.874;37.516;2023-02-20T10:55:57;19.67;;;7.00;;
74259;SDS011;62630;55.874;37.516;2023-02-20T10:58:27;15.13;;;8.07;;
74259;SDS011;62630;55.874;37.516;2023-02-20T11:01:01;21.75;;;7.85;;
74259;SDS011;62630;55.874;37.516;2023-02-20T11:03:52;16.17;;;7.75;;
74259;SDS011;62630;55.874;37.516;2023-02-20T11:06:28;19.58;;;7.97;;
74259;SDS011;62630;55.874;37.516;2023-02-20T11:09:03;15.25;;;7.55;;
74259;SDS011;62630;55.874;37.516;2023-02-20T11:11:39;14.43;;;7.50;;
74259;SDS011;62630;55.874;37.516;2023-02-20T11:14:13;14.35;;;7.85;;
74259;SDS011;62630;55.874;37.516;2023-02-20T11:17:04;15.32;;;7.20;;
74259;SDS011;62630;55.874;37.516;2023-02-20T11:22:06;18.25;;;7.20;;
74259;SDS011;62630;55.874;37.516;2023-02-20T11:24:33;13.70;;;8.00;;
74259;SDS011;62630;55.874;37.516;2023-02-20T11:29:39;15.55;;;7.65;;
74259;SDS011;62630;55.874;37.516;2023-02-20T11:37:44;14.02;;;7.18;;
74259;SDS011;62630;55.874;37.516;2023-02-20T11:40:16;17.13;;;8.40;;
74259;SDS011;62630;55.874;37.516;2023-02-20T11:42:49;12.02;;;6.65;;
74259;SDS011;62630;55.874;37.516;2023-02-20T11:45:19;14.75;;;8.32;;
74259;SDS011;62630;55.874;37.516;2023-02-20T11:51:00;24.95;;;7.68;;
74259;SDS011;62630;55.874;37.516;2023-02-20T11:53:27;14.15;;;7.57;;
74259;SDS011;62630;55.874;37.516;2023-02-20T11:56:09;13.02;;;6.47;;
74259;SDS011;62630;55.874;37.516;2023-02-20T11:58:35;13.52;;;7.00;;
74259;SDS011;62630;55.874;37.516;2023-02-20T12:01:04;11.85;;;6.65;;
74259;SDS011;62630;55.874;37.516;2023-02-20T12:03:32;15.00;;;7.22;;
74259;SDS011;62630;55.874;37.516;2023-02-20T12:06:00;19.13;;;8.18;;
74259;SDS011;62630;55.874;37.516;2023-02-20T12:08:52;17.08;;;8.27;;
74259;SDS011;62630;55.874;37.516;2023-02-20T12:11:21;17.20;;;7.80;;
74259;SDS011;62630;55.874;37.516;2023-02-20T12:13:55;16.10;;;8.48;;
74259;SDS011;62630;55.874;37.516;2023-02-20T12:16:51;14.70;;;8.02;;
74259;SDS011;62630;55.874;37.516;2023-02-20T12:22:21;17.08;;;8.32;;
74259;SDS011;62630;55.874;37.516;2023-02-20T12:46:40;14.98;;;7.60;;
74259;SDS011;62630;55.874;37.516;2023-02-20T12:54:59;16.98;;;8.30;;
74259;SDS011;62630;55.874;37.516;2023-02-20T12:57:42;11.07;;;5.93;;
74259;SDS011;62630;55.874;37.516;2023-02-20T13:03:18;16.17;;;7.05;;
74259;SDS011;62630;55.874;37.516;2023-02-20T13:05:49;15.40;;;8.25;;
74259;SDS011;62630;55.874;37.516;2023-02-20T13:08:36;14.50;;;7.47;;
74259;SDS011;62630;55.874;37.516;2023-02-20T13:11:32;16.05;;;7.32;;
74259;SDS011;62630;55.874;37.516;2023-02-20T13:19:20;17.02;;;8.40;;
74259;SDS011;62630;55.874;37.516;2023-02-20T13:21:58;15.10;;;8.50;;
74259;SDS011;62630;55.874;37.516;2023-02-20T13:24:32;15.18;;;7.55;;
74259;SDS011;62630;55.874;37.516;2023-02-20T13:27:03;15.10;;;8.48;;
74259;SDS011;62630;55.874;37.516;2023-02-20T13:29:32;15.25;;;7.97;;
74259;SDS011;62630;55.874;37.516;2023-02-20T13:32:01;16.33;;;8.13;;
74259;SDS011;62630;55.874;37.516;2023-02-20T13:34:45;16.30;;;6.80;;
74259;SDS011;62630;55.874;37.516;2023-02-20T13:45:44;14.77;;;8.15;;
74259;SDS011;62630;55.874;37.516;2023-02-20T13:53:47;14.85;;;7.85;;
74259;SDS011;62630;55.874;37.516;2023-02-20T13:56:18;24.33;;;8.45;;
74259;SDS011;62630;55.874;37.516;2023-02-20T13:58:46;16.48;;;7.82;;
74259;SDS011;62630;55.874;37.516;2023-02-20T14:01:13;17.60;;;8.95;;
74259;SDS011;62630;55.874;37.516;2023-02-20T14:03:38;18.55;;;8.45;;
74259;SDS011;62630;55.874;37.516;2023-02-20T14:09:06;23.40;;;8.90;;
74259;SDS011;62630;55.874;37.516;2023-02-20T14:11:35;18.10;;;9.05;;
74259;SDS011;62630;55.874;37.516;2023-02-20T14:14:06;15.93;;;8.48;;
74259;SDS011;62630;55.874;37.516;2023-02-20T14:16:35;19.48;;;8.55;;
74259;SDS011;62630;55.874;37.516;2023-02-20T14:19:06;16.30;;;8.05;;
74259;SDS011;62630;55.874;37.516;2023-02-20T14:21:40;16.98;;;8.85;;
74259;SDS011;62630;55.874;37.516;2023-02-20T14:24:17;19.20;;;8.77;;
74259;SDS011;62630;55.874;37.516;2023-02-20T14:26:43;16.25;;;8.57;;
74259;SDS011;62630;55.874;37.516;2023-02-20T14:29:29;16.73;;;8.23;;
74259;SDS011;62630;55.874;37.516;2023-02-20T14:31:57;18.33;;;7.90;;
74259;SDS011;62630;55.874;37.516;2023-02-20T14:42:51;18.27;;;8.15;;
74259;SDS011;62630;55.874;37.516;2023-02-20T14:45:24;21.40;;;8.80;;
74259;SDS011;62630;55.874;37.516;2023-02-20T14:50:22;20.33;;;9.20;;
74259;SDS011;62630;55.874;37.516;2023-02-20T14:55:36;15.23;;;7.60;;
74259;SDS011;62630;55.874;37.516;2023-02-20T14:58:05;21.10;;;9.13;;
74259;SDS011;62630;55.874;37.516;2023-02-20T15:00:44;16.05;;;9.13;;
74259;SDS011;62630;55.874;37.516;2023-02-20T15:03:22;19.35;;;9.40;;
74259;SDS011;62630;55.874;37.516;2023-02-20T15:05:51;18.90;;;9.27;;
74259;SDS011;62630;55.874;37.516;2023-02-20T15:10:48;19.95;;;10.40;;
74259;SDS011;62630;55.874;37.516;2023-02-20T15:13:26;18.70;;;9.07;;
74259;SDS011;62630;55.874;37.516;2023-02-20T15:16:31;18.13;;;9.38;;
74259;SDS011;62630;55.874;37.516;2023-02-20T15:18:54;24.60;;;9.57;;
74259;SDS011;62630;55.874;37.516;2023-02-20T15:26:50;24.75;;;10.90;;
74259;SDS011;62630;55.874;37.516;2023-02-20T15:31:54;19.52;;;9.35;;
74259;SDS011;62630;55.874;37.516;2023-02-20T15:34:22;22.40;;;9.98;;
74259;SDS011;62630;55.874;37.516;2023-02-20T15:36:50;21.73;;;10.52;;
74259;SDS011;62630;55.874;37.516;2023-02-20T15:39:16;24.30;;;10.35;;
74259;SDS011;62630;55.874;37.516;2023-02-20T15:41:42;18.80;;;9.43;;
74259;SDS011;62630;55.874;37.516;2023-02-20T15:44:08;23.70;;;10.05;;
74259;SDS011;62630;55.874;37.516;2023-02-20T15:46:34;21.85;;;10.23;;
74259;SDS011;62630;55.874;37.516;2023-02-20T15:49:01;22.83;;;10.30;;
74259;SDS011;62630;55.874;37.516;2023-02-20T15:51:27;21.92;;;10.25;;
74259;SDS011;62630;55.874;37.516;2023-02-20T15:53:55;22.77;;;9.90;;
74259;SDS011;62630;55.874;37.516;2023-02-20T15:56:25;23.40;;;9.88;;
74259;SDS011;62630;55.874;37.516;2023-02-20T15:58:55;25.10;;;10.25;;
74259;SDS011;62630;55.874;37.516;2023-02-20T16:01:30;26.30;;;10.90;;
74259;SDS011;62630;55.874;37.516;2023-02-20T16:03:56;29.20;;;11.48;;
74259;SDS011;62630;55.874;37.516;2023-02-20T16:06:22;22.90;;;10.88;;
74259;SDS011;62630;55.874;37.516;2023-02-20T16:08:48;23.52;;;11.00;;
74259;SDS011;62630;55.874;37.516;2023-02-20T16:11:19;18.30;;;9.05;;
74259;SDS011;62630;55.874;37.516;2023-02-20T16:13:47;23.55;;;11.70;;
74259;SDS011;62630;55.874;37.516;2023-02-20T16:16:30;24.13;;;11.30;;
74259;SDS011;62630;55.874;37.516;2023-02-20T16:21:36;23.42;;;10.85;;
74259;SDS011;62630;55.874;37.516;2023-02-20T16:24:02;21.13;;;10.27;;
74259;SDS011;62630;55.874;37.516;2023-02-20T16:26:27;21.88;;;10.18;;
74259;SDS011;62630;55.874;37.516;2023-02-20T16:29:17;24.13;;;9.70;;
74259;SDS011;62630;55.874;37.516;2023-02-20T16:34:17;26.45;;;9.85;;
74259;SDS011;62630;55.874;37.516;2023-02-20T16:36:46;18.58;;;9.77;;
74259;SDS011;62630;55.874;37.516;2023-02-20T16:39:12;25.85;;;11.18;;
74259;SDS011;62630;55.874;37.516;2023-02-20T16:41:37;21.48;;;9.63;;
74259;SDS011;62630;55.874;37.516;2023-02-20T16:44:49;25.45;;;10.90;;
74259;SDS011;62630;55.874;37.516;2023-02-20T16:47:04;25.65;;;10.45;;
74259;SDS011;62630;55.874;37.516;2023-02-20T16:49:29;20.02;;;10.07;;
74259;SDS011;62630;55.874;37.516;2023-02-20T16:52:01;23.88;;;10.48;;
74259;SDS011;62630;55.874;37.516;2023-02-20T16:54:33;27.75;;;12.40;;
74259;SDS011;62630;55.874;37.516;2023-02-20T16:56:59;33.20;;;12.35;;
74259;SDS011;62630;55.874;37.516;2023-02-20T16:59:25;25.80;;;11.60;;
74259;SDS011;62630;55.874;37.516;2023-02-20T17:01:50;25.30;;;11.63;;
74259;SDS011;62630;55.874;37.516;2023-02-20T17:04:19;22.52;;;11.23;;
74259;SDS011;62630;55.874;37.516;2023-02-20T17:06:45;24.58;;;12.27;;
74259;SDS011;62630;55.874;37.516;2023-02-20T17:09:11;26.63;;;12.38;;
74259;SDS011;62630;55.874;37.516;2023-02-20T17:11:37;29.20;;;12.38;;
74259;SDS011;62630;55.874;37.516;2023-02-20T17:14:02;25.02;;;12.75;;